Time;durP1;ratioP1;P1;durP2;ratioP2;P2;SDS_P1;SDS_P2;PMS_P1;PMS_P2;Temp;Humidity;BMP_temperature;BMP_pressure;BME280_temperature;BME280_humidity;BME280_pressure;Samples;Min_cycle;Max_cycle;Signal;HPM_P1;HPM_P2
2021/07/29 00:02:09;;;;;;;16.57;6.03;;;;;;;24.43;59.14;94779.84;10549838;28;20069;-73
2021/07/29 00:07:10;;;;;;;18.40;6.63;;;;;;;24.37;59.02;94779.31;10567450;28;20568;-73
2021/07/29 00:12:10;;;;;;;30.17;7.23;;;;;;;24.42;57.75;94790.03;10568310;28;20035;-74
2021/07/29 00:17:26;;;;;;;28.00;6.68;;;;;;;24.39;60.74;94790.72;10568090;28;20020;-73
2021/07/29 00:22:27;;;;;;;26.42;7.07;;;;;;;24.19;62.13;94798.94;10574331;28;20035;-74
2021/07/29 00:27:27;;;;;;;25.07;6.67;;;;;;;23.94;66.04;94781.94;10567125;28;20502;-74
2021/07/29 00:32:28;;;;;;;25.20;6.22;;;;;;;23.88;72.25;94795.13;10568112;28;20064;-73
2021/07/29 00:37:29;;;;;;;27.63;7.63;;;;;;;23.82;71.60;94782.00;10568908;28;20036;-73
2021/07/29 00:42:29;;;;;;;28.97;7.60;;;;;;;23.74;68.33;94783.03;10568115;28;20138;-73
2021/07/29 00:47:31;;;;;;;16.58;5.97;;;;;;;23.77;70.14;94771.31;10567970;28;20377;-73
2021/07/29 00:52:31;;;;;;;28.85;7.32;;;;;;;23.82;64.51;94771.84;10568365;28;20095;-73
2021/07/29 00:57:34;;;;;;;23.02;6.38;;;;;;;23.79;64.57;94769.81;10567800;28;20827;-73
2021/07/29 01:02:35;;;;;;;27.00;7.13;;;;;;;23.85;63.85;94760.16;10568183;28;20038;-73
2021/07/29 01:07:36;;;;;;;16.75;6.38;;;;;;;23.79;63.45;94747.06;10568340;28;20035;-73
2021/07/29 01:12:36;;;;;;;27.60;6.97;;;;;;;23.67;64.34;94762.47;10568363;28;20042;-73
2021/07/29 01:17:37;;;;;;;22.02;6.15;;;;;;;23.72;64.03;94748.50;10572854;28;20026;-73
2021/07/29 01:22:37;;;;;;;26.30;6.37;;;;;;;23.76;63.21;94754.03;10576259;28;20746;-73
2021/07/29 01:27:38;;;;;;;22.45;6.47;;;;;;;23.78;63.89;94753.69;10575535;28;20039;-74
2021/07/29 01:32:39;;;;;;;18.10;7.13;;;;;;;23.62;64.39;94742.75;10575602;28;20522;-73
2021/07/29 01:37:40;;;;;;;23.58;6.00;;;;;;;23.50;66.74;94735.44;10573936;28;20318;-72
2021/07/29 01:42:41;;;;;;;29.42;7.22;;;;;;;23.53;65.91;94731.97;10573935;28;20608;-73
2021/07/29 01:47:41;;;;;;;15.87;6.53;;;;;;;23.53;65.69;94721.00;10572986;28;20035;-73
2021/07/29 01:52:41;;;;;;;19.85;6.68;;;;;;;23.61;66.18;94725.50;10573256;28;20172;-73
2021/07/29 01:57:42;;;;;;;18.77;6.70;;;;;;;23.58;65.48;94731.69;10573058;28;20051;-73
2021/07/29 02:02:42;;;;;;;21.63;6.10;;;;;;;23.60;65.41;94734.88;10572965;28;20486;-73
2021/07/29 02:07:42;;;;;;;33.93;7.70;;;;;;;23.60;65.78;94736.84;10572189;28;20367;-73
2021/07/29 02:12:43;;;;;;;20.13;6.57;;;;;;;23.49;69.23;94720.13;10571894;28;20032;-74
2021/07/29 02:17:43;;;;;;;25.93;7.60;;;;;;;23.40;71.77;94735.97;10571802;28;20084;-73
2021/07/29 02:22:44;;;;;;;24.10;6.80;;;;;;;23.12;74.22;94742.34;10573043;28;20073;-73
2021/07/29 02:27:45;;;;;;;16.87;5.93;;;;;;;23.00;76.44;94738.50;10571923;28;20044;-73
2021/07/29 02:32:45;;;;;;;20.00;7.00;;;;;;;22.97;75.77;94735.66;10571770;28;20031;-73
2021/07/29 02:37:45;;;;;;;18.65;5.90;;;;;;;22.78;76.02;94741.84;10570595;28;20126;-73
2021/07/29 02:42:46;;;;;;;23.40;6.53;;;;;;;22.63;78.37;94737.91;10569899;28;20908;-73
2021/07/29 02:47:46;;;;;;;28.57;7.53;;;;;;;22.53;79.83;94728.28;10570664;28;20054;-72
2021/07/29 02:52:47;;;;;;;21.17;7.67;;;;;;;22.52;79.95;94734.88;10570083;28;20138;-73
2021/07/29 02:57:47;;;;;;;17.73;7.00;;;;;;;22.57;79.77;94726.44;10570960;28;20027;-73
2021/07/29 03:02:47;;;;;;;30.30;7.27;;;;;;;22.60;78.71;94720.25;10570527;28;20061;-73
2021/07/29 03:07:48;;;;;;;30.37;7.50;;;;;;;22.66;78.05;94721.59;10570328;28;20059;-73
2021/07/29 03:12:48;;;;;;;26.83;7.00;;;;;;;22.73;76.56;94721.00;10570855;28;20036;-73
2021/07/29 03:17:48;;;;;;;22.23;7.10;;;;;;;22.84;75.65;94721.25;10569565;28;20027;-73
2021/07/29 03:22:49;;;;;;;37.57;10.23;;;;;;;22.84;76.90;94721.25;10570089;28;20551;-73
2021/07/29 03:27:49;;;;;;;18.23;7.30;;;;;;;22.84;76.52;94735.75;10569147;28;20301;-73
2021/07/29 03:32:49;;;;;;;20.00;8.13;;;;;;;22.72;78.32;94735.00;10569761;28;20023;-74
2021/07/29 03:37:50;;;;;;;23.92;7.07;;;;;;;22.67;78.64;94742.34;10568704;28;20095;-74
2021/07/29 03:42:50;;;;;;;22.93;7.67;;;;;;;22.66;79.50;94749.00;10569114;28;20099;-74
2021/07/29 03:47:51;;;;;;;19.63;6.33;;;;;;;22.46;82.09;94750.00;10568801;28;20459;-74
2021/07/29 03:52:51;;;;;;;30.83;8.10;;;;;;;22.30;83.86;94764.41;10568633;28;20330;-74
2021/07/29 03:57:52;;;;;;;23.00;7.97;;;;;;;22.31;85.37;94756.97;10568576;28;20034;-74
2021/07/29 04:02:52;;;;;;;33.57;8.23;;;;;;;22.21;87.45;94761.00;10550229;28;20504;-74
2021/07/29 04:07:52;;;;;;;28.17;8.77;;;;;;;22.14;89.90;94766.25;10567951;28;20285;-74
2021/07/29 04:12:54;;;;;;;29.97;8.37;;;;;;;22.10;91.85;94757.16;10567866;28;20070;-74
2021/07/29 04:17:54;;;;;;;30.13;7.63;;;;;;;22.22;92.13;94753.59;10568075;28;20024;-74
2021/07/29 04:22:54;;;;;;;26.00;8.00;;;;;;;22.21;93.61;94761.00;10567654;28;20034;-74
2021/07/29 04:27:55;;;;;;;31.50;8.83;;;;;;;22.35;93.40;94761.44;10567258;28;20074;-74
2021/07/29 04:32:55;;;;;;;29.63;10.57;;;;;;;22.59;94.54;94758.94;10566525;28;20076;-74
2021/07/29 04:37:55;;;;;;;29.10;9.43;;;;;;;22.81;95.02;94752.09;10567027;28;20031;-74
2021/07/29 04:42:56;;;;;;;26.07;8.70;;;;;;;23.06;95.71;94754.69;10566970;28;20040;-74
2021/07/29 04:47:56;;;;;;;34.10;9.87;;;;;;;23.19;94.46;94757.03;10566739;28;20035;-74
2021/07/29 04:52:57;;;;;;;30.38;10.10;;;;;;;23.51;93.31;94756.22;10572825;28;20045;-74
2021/07/29 04:58:02;;;;;;;28.90;8.53;;;;;;;24.09;89.24;94755.59;10556015;28;20023;-73
2021/07/29 05:03:02;;;;;;;23.95;8.40;;;;;;;24.20;86.21;94764.06;10574696;28;20662;-74
2021/07/29 05:08:02;;;;;;;30.70;9.30;;;;;;;24.66;82.59;94755.22;10575001;28;20031;-74
2021/07/29 05:13:03;;;;;;;23.03;8.20;;;;;;;25.33;77.27;94754.84;10574853;28;20088;-74
2021/07/29 05:18:03;;;;;;;24.57;8.00;;;;;;;25.88;75.54;94759.22;10574365;28;20352;-74
2021/07/29 05:23:03;;;;;;;28.20;8.73;;;;;;;26.34;71.35;94753.59;10574824;28;20027;-74
2021/07/29 05:28:04;;;;;;;30.10;8.17;;;;;;;26.89;68.17;94768.81;10574074;28;20470;-74
2021/07/29 05:33:05;;;;;;;23.27;7.80;;;;;;;27.18;65.89;94769.13;10573560;28;20027;-74
2021/07/29 05:38:05;;;;;;;22.27;7.57;;;;;;;27.49;60.58;94767.03;10574291;28;20169;-74
2021/07/29 05:43:05;;;;;;;20.27;8.10;;;;;;;27.95;57.63;94767.41;10573302;28;20024;-74
2021/07/29 05:48:06;;;;;;;35.03;9.17;;;;;;;28.31;56.78;94766.84;10573094;28;20024;-74
2021/07/29 05:53:06;;;;;;;43.57;8.37;;;;;;;29.25;52.22;94775.50;10573304;28;20355;-74
2021/07/29 05:58:07;;;;;;;24.23;7.20;;;;;;;29.97;48.88;94775.53;10572662;28;20281;-74
2021/07/29 06:03:07;;;;;;;23.40;7.20;;;;;;;30.38;47.97;94772.28;10571662;28;20072;-74
2021/07/29 06:08:07;;;;;;;34.07;9.23;;;;;;;30.93;47.24;94776.44;10572422;28;20292;-74
2021/07/29 06:13:08;;;;;;;36.17;7.87;;;;;;;31.86;44.85;94783.41;10572722;28;20027;-74
2021/07/29 06:18:12;;;;;;;24.80;7.30;;;;;;;32.26;42.42;94780.28;10571773;28;20098;-74
2021/07/29 06:23:13;;;;;;;31.75;7.75;;;;;;;33.11;38.67;94787.25;10572006;28;20274;-74
2021/07/29 06:28:15;;;;;;;22.73;7.70;;;;;;;33.16;38.80;94784.00;10571352;28;20046;-74
2021/07/29 06:33:15;;;;;;;22.30;7.25;;;;;;;34.01;37.14;94789.50;10571321;28;20398;-74
2021/07/29 06:38:15;;;;;;;17.87;6.57;;;;;;;34.90;36.15;94791.88;10571177;28;20012;-74
2021/07/29 06:43:16;;;;;;;26.87;6.90;;;;;;;35.32;33.93;94785.03;10570774;28;20031;-74
2021/07/29 06:48:17;;;;;;;35.17;7.60;;;;;;;34.27;35.92;94787.06;10570463;28;20150;-74
2021/07/29 06:53:17;;;;;;;29.60;8.05;;;;;;;34.73;34.66;94773.44;10570788;28;20039;-74
2021/07/29 06:58:17;;;;;;;27.37;6.87;;;;;;;34.83;34.69;94768.91;10570680;28;20042;-74
2021/07/29 07:03:18;;;;;;;21.03;6.93;;;;;;;35.02;32.92;94762.50;10570355;28;20028;-74
2021/07/29 07:08:18;;;;;;;18.33;6.65;;;;;;;34.75;32.68;94759.88;10570193;28;20024;-74
2021/07/29 07:13:19;;;;;;;20.37;6.43;;;;;;;36.32;30.00;94753.06;10569382;28;20028;-74
2021/07/29 07:18:20;;;;;;;32.07;6.87;;;;;;;37.48;29.93;94740.09;10569660;28;20034;-74
2021/07/29 07:23:20;;;;;;;30.95;7.13;;;;;;;37.37;29.65;94748.88;10569565;28;20513;-74
2021/07/29 07:28:21;;;;;;;19.23;6.70;;;;;;;38.21;28.99;94755.38;10569779;28;20024;-74
2021/07/29 07:33:21;;;;;;;23.43;6.40;;;;;;;38.59;27.79;94752.44;10550885;28;20060;-74
2021/07/29 07:38:22;;;;;;;24.75;5.97;;;;;;;38.98;27.30;94752.25;10568980;28;20367;-74
2021/07/29 07:43:23;;;;;;;25.07;6.03;;;;;;;40.31;25.64;94755.41;10568800;28;20023;-74
2021/07/29 07:48:23;;;;;;;21.02;5.57;;;;;;;39.27;25.85;94760.41;10568242;28;20027;-74
2021/07/29 07:53:30;;;;;;;19.87;5.30;;;;;;;39.90;26.25;94753.91;10568715;28;20031;-74
2021/07/29 07:58:31;;;;;;;16.30;5.43;;;;;;;40.69;24.63;94744.94;10550016;28;20759;-74
2021/07/29 08:03:31;;;;;;;24.20;5.32;;;;;;;40.98;24.37;94738.78;10569684;28;20059;-74
2021/07/29 08:08:32;;;;;;;17.90;4.63;;;;;;;42.25;22.60;94747.66;10568900;28;20122;-74
2021/07/29 08:13:32;;;;;;;18.03;5.80;;;;;;;42.23;22.18;94740.94;10569293;28;20024;-74
2021/07/29 08:18:32;;;;;;;22.13;5.67;;;;;;;42.10;22.30;94727.81;10568546;28;20024;-75
2021/07/29 08:23:33;;;;;;;17.10;5.27;;;;;;;42.71;21.75;94723.16;10568602;28;20043;-75
2021/07/29 08:28:43;;;;;;;26.87;5.60;;;;;;;42.85;22.01;94728.03;10568730;28;20028;-75
2021/07/29 08:33:43;;;;;;;21.92;5.47;;;;;;;40.53;23.84;94726.34;10568513;28;20028;-74
2021/07/29 08:38:46;;;;;;;24.30;5.30;;;;;;;41.81;22.32;94712.34;10568339;28;20027;-73
2021/07/29 08:43:47;;;;;;;24.50;6.00;;;;;;;42.65;22.51;94712.50;10568464;28;20035;-74
2021/07/29 08:48:50;;;;;;;19.85;5.30;;;;;;;42.97;21.44;94709.22;10568041;28;20505;-74
2021/07/29 08:53:51;;;;;;;17.88;4.72;;;;;;;44.66;20.61;94707.22;10568273;28;20106;-74
2021/07/29 08:58:53;;;;;;;25.63;5.53;;;;;;;43.74;20.74;94709.41;10567941;28;20107;-74
2021/07/29 09:04:10;;;;;;;22.25;5.30;;;;;;;45.17;19.93;94704.91;10568597;28;20031;-75
2021/07/29 09:09:10;;;;;;;23.35;5.30;;;;;;;44.86;19.88;94693.00;10549984;28;20870;-75
2021/07/29 09:14:18;;;;;;;26.07;5.80;;;;;;;45.83;20.13;94690.91;10567962;28;20039;-75
2021/07/29 09:19:32;;;;;;;23.42;6.03;;;;;;;47.00;18.71;94686.19;10568243;28;20063;-75
2021/07/29 09:24:33;;;;;;;20.30;5.28;;;;;;;47.46;18.48;94675.56;10549115;28;20131;-75
2021/07/29 09:29:33;;;;;;;19.23;5.33;;;;;;;47.77;17.78;94672.94;10567308;28;20031;-75
2021/07/29 09:34:42;;;;;;;24.17;5.20;;;;;;;48.24;17.41;94673.81;10567408;28;20027;-75
2021/07/29 09:39:43;;;;;;;20.30;5.18;;;;;;;48.67;17.77;94666.84;10574142;28;20020;-75
2021/07/29 09:44:54;;;;;;;19.83;5.75;;;;;;;49.00;17.33;94655.72;10575048;28;20039;-74
2021/07/29 09:49:54;;;;;;;25.85;5.80;;;;;;;49.19;17.04;94662.31;10574721;28;20031;-73
2021/07/29 09:54:56;;;;;;;24.00;5.00;;;;;;;48.83;16.89;94658.69;10574300;28;20471;-73
2021/07/29 09:59:56;;;;;;;22.98;5.30;;;;;;;49.75;15.45;94658.19;10574343;28;20035;-75
2021/07/29 10:05:01;;;;;;;25.73;5.37;;;;;;;50.21;14.91;94657.66;10573952;28;20031;-73
2021/07/29 10:10:03;;;;;;;18.10;4.65;;;;;;;48.33;14.80;94655.63;10573589;28;20114;-73
2021/07/29 10:15:05;;;;;;;29.10;5.00;;;;;;;49.35;15.61;94645.59;10573186;28;20024;-73
2021/07/29 10:20:16;;;;;;;29.25;4.65;;;;;;;49.98;15.27;94651.47;10573120;28;20034;-73
2021/07/29 10:25:17;;;;;;;22.42;4.93;;;;;;;49.89;14.53;94644.00;10572911;28;20055;-73
2021/07/29 10:30:20;;;;;;;24.83;4.97;;;;;;;49.39;15.30;94640.34;10573028;28;20034;-73
2021/07/29 10:35:30;;;;;;;29.08;5.15;;;;;;;50.09;15.24;94629.22;10572804;28;20375;-73
2021/07/29 10:40:33;;;;;;;18.10;4.00;;;;;;;51.14;14.14;94622.28;10572661;28;20027;-73
2021/07/29 10:45:56;;;;;;;16.27;4.65;;;;;;;49.84;14.28;94624.84;10572118;28;20031;-74
2021/07/29 10:51:23;;;;;;;23.93;5.00;;;;;;;49.77;14.97;94620.50;10572265;28;20517;-73
2021/07/29 10:56:25;;;;;;;24.30;4.88;;;;;;;50.33;13.80;94604.00;10571768;28;20023;-73
2021/07/29 11:01:51;;;;;;;27.25;4.20;;;;;;;50.51;14.40;94608.16;10571881;28;20052;-74
2021/07/29 11:07:00;;;;;;;26.02;4.30;;;;;;;51.69;13.56;94605.38;10571530;28;20020;-74
2021/07/29 11:12:00;;;;;;;19.98;4.95;;;;;;;48.76;14.57;94597.28;10571515;28;20027;-74
2021/07/29 11:17:02;;;;;;;18.65;4.57;;;;;;;46.83;15.61;94597.19;10570607;28;20446;-74
2021/07/29 11:22:07;;;;;;;19.63;4.97;;;;;;;44.74;17.18;94588.50;10570748;28;20028;-74
2021/07/29 11:27:11;;;;;;;;;;;;;;;43.38;18.11;94587.72;10570676;28;20040;-74
2021/07/29 11:32:12;;;;;;;24.17;5.43;;;;;;;42.62;19.51;94591.16;10570451;28;19907;-74
2021/07/29 11:37:12;;;;;;;19.27;5.57;;;;;;;41.44;20.47;94574.28;10569989;28;20011;-73
2021/07/29 11:42:13;;;;;;;21.37;6.17;;;;;;;40.91;20.73;94567.16;10570226;28;20031;-73
2021/07/29 11:47:14;;;;;;;27.00;4.77;;;;;;;40.23;20.52;94562.69;10551837;28;20032;-73
2021/07/29 11:52:15;;;;;;;26.20;5.00;;;;;;;39.58;21.84;94559.13;10570069;28;20273;-73
2021/07/29 11:57:28;;;;;;;24.75;5.10;;;;;;;39.20;22.04;94561.09;10569016;28;20011;-73
2021/07/29 12:02:28;;;;;;;26.30;5.45;;;;;;;39.15;21.42;94553.28;10568143;28;20024;-73
2021/07/29 12:07:29;;;;;;;16.57;4.10;;;;;;;38.90;20.46;94546.63;10569492;28;20445;-74
2021/07/29 12:12:31;;;;;;;28.85;5.35;;;;;;;38.70;21.35;94537.81;10567759;28;20027;-74
2021/07/29 12:17:31;;;;;;;15.48;3.88;;;;;;;38.51;20.70;94537.72;10567309;28;20424;-74
2021/07/29 12:22:37;;;;;;;19.37;4.13;;;;;;;38.25;20.73;94542.72;10568112;28;20092;-74
2021/07/29 12:27:45;;;;;;;22.00;4.57;;;;;;;38.45;20.28;94537.53;10568858;28;20039;-74
2021/07/29 12:32:45;;;;;;;20.42;4.18;;;;;;;38.48;20.21;94521.78;10577772;28;20103;-73
2021/07/29 12:37:45;;;;;;;20.63;4.60;;;;;;;38.37;20.57;94522.22;10568652;28;20022;-73
2021/07/29 12:42:46;;;;;;;23.33;4.70;;;;;;;38.36;20.22;94515.03;10550185;28;20030;-73
2021/07/29 12:48:06;;;;;;;20.77;4.37;;;;;;;38.30;20.99;94509.22;10568193;28;20069;-74
2021/07/29 12:53:14;;;;;;;31.55;4.32;;;;;;;37.99;20.85;94512.00;10568241;28;20483;-73
2021/07/29 12:58:15;;;;;;;18.10;4.13;;;;;;;38.08;20.25;94506.47;10568413;28;20072;-73
2021/07/29 13:03:20;;;;;;;19.05;4.95;;;;;;;38.01;20.06;94495.47;10568649;28;20554;-73
2021/07/29 13:08:21;;;;;;;20.70;4.70;;;;;;;37.88;19.77;94492.00;10567753;28;20112;-73
2021/07/29 13:13:29;;;;;;;23.40;4.97;;;;;;;37.92;20.20;94499.03;10572580;28;20030;-74
2021/07/29 13:18:29;;;;;;;26.45;5.45;;;;;;;37.84;18.88;94485.72;10575915;28;20482;-74
2021/07/29 13:23:31;;;;;;;24.73;4.63;;;;;;;37.52;19.76;94480.03;10575277;28;20039;-73
2021/07/29 13:28:31;;;;;;;26.50;4.28;;;;;;;37.47;19.52;94458.22;10575339;28;20131;-73
2021/07/29 13:33:32;;;;;;;21.77;4.10;;;;;;;37.34;19.78;94468.69;10575058;28;20037;-74
2021/07/29 13:38:32;;;;;;;23.60;4.57;;;;;;;37.13;20.36;94462.56;10575055;28;20102;-74
2021/07/29 13:43:32;;;;;;;24.70;4.53;;;;;;;37.07;19.14;94467.19;10556904;28;20028;-73
2021/07/29 13:48:33;;;;;;;29.33;5.07;;;;;;;36.79;20.11;94461.31;10574205;28;20035;-73
2021/07/29 13:53:33;;;;;;;18.87;5.57;;;;;;;36.83;20.12;94445.19;10574174;28;20053;-73
2021/07/29 13:58:34;;;;;;;27.23;5.27;;;;;;;36.78;20.57;94449.31;10556219;28;20019;-73
2021/07/29 14:03:35;;;;;;;33.40;4.70;;;;;;;36.77;20.91;94446.94;10573698;28;20119;-74
2021/07/29 14:08:36;;;;;;;20.48;3.80;;;;;;;36.64;20.84;94441.38;10573921;28;20111;-73
2021/07/29 14:13:36;;;;;;;23.67;5.27;;;;;;;36.41;21.25;94442.56;10573659;28;20023;-73
2021/07/29 14:18:38;;;;;;;33.33;4.83;;;;;;;36.35;21.02;94447.94;10572941;28;20459;-73
2021/07/29 14:23:38;;;;;;;21.38;3.80;;;;;;;36.31;21.00;94438.06;10554050;28;20052;-73
2021/07/29 14:28:41;;;;;;;31.97;5.60;;;;;;;36.20;21.73;94439.16;10572445;28;20012;-73
2021/07/29 14:33:41;;;;;;;23.08;4.70;;;;;;;36.03;21.92;94446.91;10572332;28;20111;-73
2021/07/29 14:38:42;;;;;;;29.60;4.93;;;;;;;35.89;22.98;94431.34;10572492;28;20482;-74
2021/07/29 14:43:42;;;;;;;17.63;4.27;;;;;;;35.87;22.55;94433.00;10572175;28;20035;-73
2021/07/29 14:53:49;;;;;;;21.77;4.78;;;;;;;35.63;21.99;94432.47;10571827;28;20110;-73
2021/07/29 16:08:11;;;;;;;25.52;4.55;;;;;;;32.42;25.51;94434.81;10569431;28;20031;-75
2021/07/29 16:13:15;;;;;;;24.63;4.90;;;;;;;32.57;25.68;94434.56;10569200;28;20112;-75
2021/07/29 16:18:16;;;;;;;30.52;4.93;;;;;;;32.71;26.18;94442.69;10569615;28;20033;-75
2021/07/29 16:23:16;;;;;;;22.60;5.50;;;;;;;32.61;26.38;94444.44;10572750;28;20035;-84
2021/07/29 16:28:16;;;;;;;21.70;4.63;;;;;;;32.59;26.45;94451.63;10558120;28;20031;-84
2021/07/29 16:33:16;;;;;;;21.47;4.80;;;;;;;32.52;27.80;94450.50;10553609;28;20097;-84
2021/07/29 16:38:17;;;;;;;23.17;5.70;;;;;;;32.51;28.89;94456.50;10573198;28;20020;-83
2021/07/29 16:43:17;;;;;;;31.80;4.93;;;;;;;32.39;29.26;94452.34;10573250;28;20031;-84
2021/07/29 16:48:17;;;;;;;30.90;9.50;;;;;;;32.29;29.00;94459.66;10578432;28;20118;-84
2021/07/29 16:53:18;;;;;;;23.17;5.77;;;;;;;32.26;29.94;94460.47;10581457;28;20417;-84
2021/07/29 16:58:18;;;;;;;24.47;6.90;;;;;;;32.19;30.23;94464.16;10578858;27;20100;-83
2021/07/29 17:03:19;;;;;;;25.10;5.70;;;;;;;32.06;31.17;94465.91;10580652;28;20042;-83
2021/07/29 17:08:19;;;;;;;38.55;5.63;;;;;;;31.95;31.46;94470.84;10611668;27;20023;-83
2021/07/29 17:13:20;;;;;;;30.53;5.37;;;;;;;31.77;31.45;94466.28;10585538;27;20032;-82
2021/07/29 17:18:20;;;;;;;14.80;5.07;;;;;;;31.69;32.12;94470.38;10517989;28;20031;-83
2021/07/29 17:23:20;;;;;;;31.07;5.90;;;;;;;31.59;32.10;94474.09;10534821;28;20301;-82
2021/07/29 17:28:21;;;;;;;31.13;7.20;;;;;;;31.34;33.69;94469.56;10563527;27;20637;-82
2021/07/29 17:33:21;;;;;;;25.77;5.67;;;;;;;31.02;33.82;94462.38;10534656;28;20046;-84
2021/07/29 17:38:21;;;;;;;27.07;5.83;;;;;;;30.79;34.87;94472.09;10571128;28;20030;-84
2021/07/29 17:43:22;;;;;;;28.73;5.97;;;;;;;30.61;35.27;94463.94;10578349;28;20027;-82
2021/07/29 17:48:22;;;;;;;31.50;5.57;;;;;;;30.39;35.86;94471.63;10580571;28;20044;-83
2021/07/29 17:53:23;;;;;;;28.05;6.30;;;;;;;30.23;36.20;94474.13;10548975;28;20127;-84
2021/07/29 17:58:23;;;;;;;23.70;6.00;;;;;;;29.95;36.95;94481.44;10618512;27;20045;-83
2021/07/29 18:03:24;;;;;;;31.38;6.05;;;;;;;29.73;37.55;94480.75;10621317;27;20844;-82
2021/07/29 18:08:24;;;;;;;37.97;6.63;;;;;;;29.60;37.51;94485.94;10573887;27;20550;-83
2021/07/29 18:13:24;;;;;;;30.93;5.73;;;;;;;29.49;38.33;94492.31;10619855;27;20019;-84
2021/07/29 18:18:25;;;;;;;21.47;5.00;;;;;;;29.32;37.92;94496.72;10588094;27;20277;-83
2021/07/29 18:23:25;;;;;;;33.35;6.25;;;;;;;29.23;38.60;94498.31;10577823;27;20684;-79
2021/07/29 18:28:25;;;;;;;25.57;5.10;;;;;;;29.13;38.58;94495.16;10593951;27;20034;-79
2021/07/29 18:33:26;;;;;;;25.87;5.70;;;;;;;28.91;39.23;94501.91;10572099;28;20055;-79
2021/07/29 18:38:29;;;;;;;23.67;5.70;;;;;;;28.83;39.43;94503.91;10572470;28;20038;-74
2021/07/29 18:43:29;;;;;;;23.95;6.55;;;;;;;28.89;40.50;94510.63;10571897;28;20054;-74
2021/07/29 18:48:30;;;;;;;27.90;7.40;;;;;;;28.75;39.27;94530.00;10571624;28;20080;-74
2021/07/29 18:53:30;;;;;;;33.83;6.45;;;;;;;28.83;40.34;94525.25;10571455;28;20092;-74
2021/07/29 18:58:32;;;;;;;31.77;7.40;;;;;;;28.70;40.71;94531.16;10570917;28;20111;-74
2021/07/29 19:03:32;;;;;;;25.52;6.22;;;;;;;28.43;41.89;94526.00;10570268;28;20031;-74
2021/07/29 19:08:36;;;;;;;26.53;6.43;;;;;;;28.24;41.42;94529.13;10552548;28;20031;-74
2021/07/29 19:13:39;;;;;;;32.47;6.88;;;;;;;28.06;43.17;94529.91;10570092;28;20463;-74
2021/07/29 19:18:40;;;;;;;22.63;8.20;;;;;;;27.89;42.39;94522.31;10528300;28;20020;-74
2021/07/29 19:23:40;;;;;;;35.70;8.23;;;;;;;27.73;43.02;94517.94;10528043;28;20052;-74
2021/07/29 19:28:41;;;;;;;30.40;9.03;;;;;;;27.63;43.52;94510.41;10531302;28;20051;-74
2021/07/29 19:33:41;;;;;;;38.60;8.25;;;;;;;27.56;42.72;94508.41;10550689;28;20031;-74
2021/07/29 19:38:42;;;;;;;42.00;7.47;;;;;;;27.50;42.27;94509.94;10569463;28;20568;-74
2021/07/29 19:43:42;;;;;;;29.73;7.15;;;;;;;27.47;41.51;94502.44;10569648;28;20028;-73
2021/07/29 19:48:43;;;;;;;35.80;7.33;;;;;;;27.34;40.74;94507.50;10568432;28;20031;-73
2021/07/29 19:53:43;;;;;;;32.33;6.10;;;;;;;27.25;39.83;94498.78;10569087;28;20027;-73
2021/07/29 19:58:43;;;;;;;26.05;6.85;;;;;;;27.16;39.40;94498.34;10568619;28;20035;-72
2021/07/29 20:03:44;;;;;;;30.83;6.73;;;;;;;27.09;39.71;94502.63;10567821;28;20114;-73
2021/07/29 20:08:44;;;;;;;32.00;6.27;;;;;;;27.04;39.27;94499.44;10568810;28;20115;-72
2021/07/29 20:13:45;;;;;;;39.77;6.70;;;;;;;26.91;39.10;94504.50;10567794;28;20281;-73
2021/07/29 20:18:46;;;;;;;33.80;6.43;;;;;;;26.86;38.25;94500.16;10567261;28;20062;-75
2021/07/29 20:23:46;;;;;;;29.57;5.83;;;;;;;26.83;37.84;94503.66;10567109;28;20202;-73
2021/07/29 20:28:46;;;;;;;29.03;4.97;;;;;;;26.78;36.56;94507.56;10537588;28;20498;-73
2021/07/29 20:33:47;;;;;;;26.23;5.40;;;;;;;26.74;35.69;94498.47;10524435;28;20028;-75
2021/07/29 20:38:47;;;;;;;32.73;6.27;;;;;;;26.69;36.32;94503.53;10522779;28;20078;-73
2021/07/29 20:43:48;;;;;;;23.43;5.67;;;;;;;26.62;36.75;94496.00;10522983;28;20425;-73
2021/07/29 20:48:49;;;;;;;31.13;4.75;;;;;;;26.52;36.05;94496.72;10524553;28;20494;-73
2021/07/29 20:53:49;;;;;;;23.42;5.13;;;;;;;26.52;36.05;94497.50;10523525;28;20032;-73
2021/07/29 20:58:50;;;;;;;28.02;6.90;;;;;;;26.52;40.03;94508.50;10524188;28;20035;-73
2021/07/29 21:03:50;;;;;;;24.77;4.83;;;;;;;26.45;37.02;94511.22;10524704;28;20036;-74
2021/07/29 21:08:51;;;;;;;27.83;6.15;;;;;;;26.44;36.85;94512.38;10523800;28;20024;-74
2021/07/29 21:13:53;;;;;;;17.67;4.77;;;;;;;26.20;39.67;94513.75;10524057;28;20024;-75
2021/07/29 21:18:53;;;;;;;31.88;5.57;;;;;;;25.51;44.26;94517.69;10505652;28;20463;-75
2021/07/29 21:24:01;;;;;;;19.40;5.30;;;;;;;24.99;48.21;94509.94;10552925;28;20039;-73
2021/07/29 21:29:01;;;;;;;26.88;4.65;;;;;;;24.75;51.07;94511.16;10608069;27;20106;-73
2021/07/29 21:34:02;;;;;;;25.85;6.03;;;;;;;24.53;52.98;94521.78;10611911;27;20052;-73
2021/07/29 21:39:02;;;;;;;22.85;5.32;;;;;;;24.44;54.26;94518.50;10615929;27;20414;-73
2021/07/29 21:44:03;;;;;;;32.93;5.63;;;;;;;24.32;53.60;94515.94;10615500;27;20546;-73
2021/07/29 21:49:03;;;;;;;25.15;5.60;;;;;;;24.29;54.37;94513.94;10615679;27;20031;-74
2021/07/29 21:54:04;;;;;;;21.63;5.93;;;;;;;24.19;54.72;94521.59;10615362;27;20447;-73
2021/07/29 21:59:05;;;;;;;17.88;4.93;;;;;;;24.18;53.59;94525.53;10613937;27;20689;-73
2021/07/29 22:04:05;;;;;;;31.07;5.70;;;;;;;24.32;53.06;94529.66;10615717;27;20129;-73
2021/07/29 22:09:06;;;;;;;25.75;5.38;;;;;;;24.28;56.64;94521.38;10614452;27;20031;-73
2021/07/29 22:14:07;;;;;;;17.83;5.93;;;;;;;24.20;57.82;94536.16;10614789;27;20023;-74
2021/07/29 22:19:07;;;;;;;27.02;5.55;;;;;;;24.05;56.44;94527.63;10615065;27;20871;-74
2021/07/29 22:24:08;;;;;;;24.20;5.63;;;;;;;23.87;58.77;94526.50;10613926;27;20452;-73
2021/07/29 22:29:08;;;;;;;24.88;5.80;;;;;;;23.84;59.31;94519.78;10613810;27;20349;-74
2021/07/29 22:34:09;;;;;;;29.33;6.10;;;;;;;23.74;54.40;94520.38;10614288;27;20085;-73
2021/07/29 22:39:09;;;;;;;26.55;5.00;;;;;;;23.81;60.28;94522.47;10613512;27;20030;-74
2021/07/29 22:44:09;;;;;;;32.53;6.13;;;;;;;23.74;58.89;94523.13;10613416;27;20031;-74
2021/07/29 22:49:10;;;;;;;25.97;6.53;;;;;;;23.82;59.28;94516.63;10611527;27;20043;-74
2021/07/29 22:54:10;;;;;;;32.67;6.07;;;;;;;23.77;57.40;94516.91;10612216;27;20054;-74
2021/07/29 22:59:11;;;;;;;29.37;7.43;;;;;;;23.80;62.01;94515.38;10612681;27;20810;-74
2021/07/29 23:04:11;;;;;;;21.67;7.22;;;;;;;23.83;66.75;94520.13;10612787;27;20273;-74
2021/07/29 23:09:12;;;;;;;24.93;6.57;;;;;;;23.78;68.72;94515.75;10612868;27;20462;-74
2021/07/29 23:14:12;;;;;;;23.80;6.93;;;;;;;23.85;69.29;94515.88;10612502;27;20482;-73
2021/07/29 23:19:13;;;;;;;45.23;8.73;;;;;;;23.86;66.60;94516.66;10593930;27;20653;-73
2021/07/29 23:29:28;;;;;;;22.80;6.13;;;;;;;23.80;65.07;94515.38;10611786;27;20031;-73
2021/07/29 23:34:29;;;;;;;25.73;6.93;;;;;;;23.69;70.68;94512.44;10592790;27;20031;-73
2021/07/29 23:39:31;;;;;;;33.40;7.55;;;;;;;23.74;64.89;94506.66;10611347;27;20023;-73
2021/07/29 23:44:31;;;;;;;27.17;6.80;;;;;;;23.66;67.34;94513.94;10611214;27;20030;-73
2021/07/29 23:49:31;;;;;;;36.17;6.25;;;;;;;23.63;62.53;94509.19;10610567;27;20031;-73
2021/07/29 23:54:32;;;;;;;23.60;6.07;;;;;;;23.59;59.83;94505.59;10610385;27;20053;-73
2021/07/29 23:59:32;;;;;;;30.70;6.37;;;;;;;23.42;57.73;94514.25;10610036;27;20023;-73
